Time;durP1;ratioP1;P1;durP2;ratioP2;P2;SDS_P1;SDS_P2;PMS_P1;PMS_P2;Temp;Humidity;BMP_temperature;BMP_pressure;BME280_temperature;BME280_humidity;BME280_pressure;Samples;Min_cycle;Max_cycle;Signal;HPM_P1;HPM_P2
2022/08/26 00:00:49;;;;;;;;;;;;;;;25.81;60.70;99310.47;7319874;19;130287;-37
2022/08/26 00:03:15;;;;;;;;;;;;;;;25.81;61.17;99305.19;7318055;19;129234;-38
2022/08/26 00:05:40;;;;;;;;;;;;;;;25.81;60.58;99310.47;7317212;19;129172;-37
2022/08/26 00:08:06;;;;;;;;;;;;;;;25.29;54.75;99304.09;7318065;19;130095;-38
2022/08/26 00:10:31;;;;;;;;;;;;;;;25.26;53.77;99304.44;7318781;19;131047;-38
2022/08/26 00:12:57;;;;;;;;;;;;;;;25.48;59.72;99308.97;7316890;19;129051;-38
2022/08/26 00:15:25;;;;;;;;;;;;;;;25.61;60.16;99298.72;7316969;19;128884;-39
2022/08/26 00:17:51;;;;;;;;;;;;;;;25.69;60.48;99301.31;7318655;19;129329;-39
2022/08/26 00:20:19;;;;;;;;;;;;;;;25.74;59.93;99298.97;7319078;19;130506;-38
2022/08/26 00:22:44;;;;;;;;;;;;;;;25.78;60.55;99296.81;7317400;19;128867;-38
2022/08/26 00:25:11;;;;;;;;;;;;;;;25.79;59.89;99301.06;7317460;19;129515;-38
2022/08/26 00:27:36;;;;;;;;;;;;;;;25.79;60.63;99296.63;7316986;19;129282;-41
2022/08/26 00:30:03;;;;;;;;;;;;;;;25.78;60.65;99297.66;7318082;19;129361;-37
2022/08/26 00:32:29;;;;;;;;;;;;;;;25.79;60.64;99296.63;7317609;19;128973;-39
2022/08/26 00:34:54;;;;;;;;;;;;;;;25.73;60.82;99284.19;7316529;19;129538;-40
2022/08/26 00:37:19;;;;;;;;;;;;;;;25.79;59.92;99288.72;7317959;19;130465;-36
2022/08/26 00:39:44;;;;;;;;;;;;;;;25.80;59.85;99289.56;7318747;19;129578;-39
2022/08/26 00:42:10;;;;;;;;;;;;;;;25.82;60.79;99283.13;7317515;19;128769;-38
2022/08/26 00:44:35;;;;;;;;;;;;;;;25.73;60.83;99276.28;7317655;19;129607;-41
2022/08/26 00:47:02;;;;;;;;;;;;;;;25.81;60.56;99286.75;7318241;19;129866;-38
2022/08/26 00:49:40;;;;;;;;;;;;;;;25.82;60.36;99285.75;7318160;19;130087;-40
2022/08/26 00:52:07;;;;;;;;;;;;;;;25.82;60.58;99280.47;7316629;19;129228;-40
2022/08/26 00:54:33;;;;;;;;;;;;;;;25.46;55.59;99282.00;7316414;19;128920;-39
2022/08/26 00:57:04;;;;;;;;;;;;;;;25.27;54.48;99279.78;7316727;19;129237;-37
2022/08/26 00:59:31;;;;;;;;;;;;;;;25.41;57.94;99277.25;7318667;19;129818;-39
2022/08/26 01:01:56;;;;;;;;;;;;;;;25.54;60.08;99274.06;7317702;19;129597;-41
2022/08/26 01:04:22;;;;;;;;;;;;;;;25.69;59.95;99280.22;7317244;19;128820;-38
2022/08/26 01:06:48;;;;;;;;;;;;;;;25.75;60.35;99279.53;7316647;19;129599;-40
2022/08/26 01:09:14;;;;;;;;;;;;;;;25.79;59.92;99274.75;7315878;19;130277;-39
2022/08/26 01:11:40;;;;;;;;;;;;;;;25.80;59.89;99274.56;7317286;19;129329;-41
2022/08/26 01:14:06;;;;;;;;;;;;;;;25.82;60.04;99274.41;7316186;19;129199;-40
2022/08/26 01:16:32;;;;;;;;;;;;;;;25.83;60.36;99276.88;7313427;19;129547;-41
2022/08/26 01:19:01;;;;;;;;;;;;;;;25.74;60.18;99254.19;7317802;19;129336;-40
2022/08/26 01:21:36;;;;;;;;;;;;;;;25.83;60.65;99273.41;7315612;19;128746;-39
2022/08/26 01:24:01;;;;;;;;;;;;;;;25.82;60.81;99275.22;7317123;19;129954;-40
2022/08/26 01:26:29;;;;;;;;;;;;;;;25.83;60.13;99271.59;7314057;19;129430;-36
2022/08/26 01:28:56;;;;;;;;;;;;;;;25.84;60.25;99273.22;7316673;19;129457;-39
2022/08/26 01:31:23;;;;;;;;;;;;;;;25.84;61.06;99272.41;7317287;19;130162;-39
2022/08/26 01:33:58;;;;;;;;;;;;;;;25.83;60.49;99271.59;7315702;19;129239;-39
2022/08/26 01:36:23;;;;;;;;;;;;;;;25.83;60.71;99268.13;7313210;19;129425;-38
2022/08/26 01:38:49;;;;;;;;;;;;;;;25.86;60.91;99271.25;7316001;19;129281;-39
2022/08/26 01:41:15;;;;;;;;;;;;;;;25.53;56.45;99268.00;7317369;19;128610;-40
2022/08/26 01:43:42;;;;;;;;;;;;;;;25.29;54.24;99270.69;7315126;19;129546;-40
2022/08/26 01:46:08;;;;;;;;;;;;;;;25.41;57.00;99276.44;7313594;19;129621;-41
2022/08/26 01:48:34;;;;;;;;;;;;;;;25.59;59.97;99274.38;7315992;19;130353;-40
2022/08/26 01:51:02;;;;;;;;;;;;;;;25.68;60.37;99268.06;7316670;19;129135;-37
2022/08/26 01:53:27;;;;;;;;;;;;;;;25.76;59.94;99272.47;7316036;19;129210;-38
2022/08/26 01:55:55;;;;;;;;;;;;;;;25.78;60.21;99271.31;7313118;19;129145;-39
2022/08/26 01:58:26;;;;;;;;;;;;;;;25.82;60.42;99267.31;7314729;19;129720;-39
2022/08/26 02:00:52;;;;;;;;;;;;;;;25.83;60.17;99266.34;7316358;19;128602;-37
2022/08/26 02:03:20;;;;;;;;;;;;;;;25.82;59.95;99269.94;7314815;19;130019;-39
2022/08/26 02:05:56;;;;;;;;;;;;;;;25.82;60.47;99275.22;7313274;19;129428;-39
2022/08/26 02:08:24;;;;;;;;;;;;;;;25.79;59.99;99272.09;7314797;19;129603;-39
2022/08/26 02:10:49;;;;;;;;;;;;;;;25.82;60.13;99269.94;7315903;19;129140;-39
2022/08/26 02:13:14;;;;;;;;;;;;;;;25.84;60.71;99277.66;7314652;19;128985;-40
2022/08/26 02:15:41;;;;;;;;;;;;;;;25.83;60.66;99274.25;7312102;19;129438;-37
2022/08/26 02:18:08;;;;;;;;;;;;;;;25.84;60.80;99267.97;7314715;19;130465;-39
2022/08/26 02:20:33;;;;;;;;;;;;;;;25.79;60.97;99259.78;7314371;19;128955;-40
2022/08/26 02:22:59;;;;;;;;;;;;;;;25.85;60.64;99268.78;7314717;19;129022;-38
2022/08/26 02:25:46;;;;;;;;;;;;;;;25.86;60.91;99268.63;7312608;19;129600;-37
2022/08/26 02:28:12;;;;;;;;;;;;;;;25.85;60.39;99274.84;7313779;19;129473;-38
2022/08/26 02:30:39;;;;;;;;;;;;;;;25.33;54.28;99263.28;7314810;19;129111;-37
2022/08/26 02:33:05;;;;;;;;;;;;;;;25.22;53.66;99255.78;7314454;19;129125;-39
2022/08/26 02:35:32;;;;;;;;;;;;;;;25.54;59.26;99271.44;7312497;19;130795;-42
2022/08/26 02:37:58;;;;;;;;;;;;;;;25.66;59.98;99267.44;7314405;19;129637;-40
2022/08/26 02:40:25;;;;;;;;;;;;;;;25.72;60.05;99269.34;7314554;19;129758;-42
2022/08/26 02:42:51;;;;;;;;;;;;;;;25.78;60.35;99262.56;7314748;19;129034;-39
2022/08/26 02:45:17;;;;;;;;;;;;;;;25.81;59.65;99268.31;7312845;19;129672;-39
2022/08/26 02:47:43;;;;;;;;;;;;;;;25.81;60.29;99263.06;7314357;19;130555;-40
2022/08/26 02:50:09;;;;;;;;;;;;;;;25.81;60.67;99268.31;7314359;19;129683;-40
2022/08/26 02:52:34;;;;;;;;;;;;;;;25.82;60.05;99267.31;7315153;19;129047;-38
2022/08/26 02:54:59;;;;;;;;;;;;;;;25.83;60.13;99268.13;7312853;19;130164;-40
2022/08/26 02:57:24;;;;;;;;;;;;;;;25.84;60.35;99272.41;7314118;19;129256;-40
2022/08/26 02:59:50;;;;;;;;;;;;;;;25.85;60.90;99266.97;7314103;19;129181;-36
2022/08/26 03:02:16;;;;;;;;;;;;;;;25.86;60.83;99265.97;7314406;19;128918;-41
2022/08/26 03:04:41;;;;;;;;;;;;;;;25.86;60.69;99258.06;7312849;19;129198;-40
2022/08/26 03:07:06;;;;;;;;;;;;;;;25.86;60.31;99265.97;7313817;19;130273;-41
2022/08/26 03:09:32;;;;;;;;;;;;;;;25.88;60.91;99264.00;7314589;19;129383;-40
2022/08/26 03:11:57;;;;;;;;;;;;;;;25.86;60.38;99263.34;7314353;19;129535;-42
2022/08/26 03:14:23;;;;;;;;;;;;;;;25.85;60.74;99253.78;7312388;19;129477;-39
2022/08/26 03:16:50;;;;;;;;;;;;;;;25.47;54.76;99249.41;7313349;19;130903;-40
2022/08/26 03:19:16;;;;;;;;;;;;;;;25.29;53.89;99257.53;7313557;19;128914;-39
2022/08/26 03:21:42;;;;;;;;;;;;;;;25.42;58.42;99259.66;7313164;19;128785;-42
2022/08/26 03:24:09;;;;;;;;;;;;;;;25.60;59.60;99261.03;7312531;19;130227;-40
2022/08/26 03:26:34;;;;;;;;;;;;;;;25.69;60.30;99252.09;7310326;19;130493;-40
2022/08/26 03:31:44;;;;;;;;;;;;;;;25.80;60.38;99240.31;7311602;19;129423;-39
2022/08/26 03:34:09;;;;;;;;;;;;;;;25.83;60.41;99247.06;7312475;19;129037;-40
2022/08/26 03:36:35;;;;;;;;;;;;;;;25.76;59.83;99227.69;7309090;19;129639;-38
2022/08/26 03:39:00;;;;;;;;;;;;;;;25.83;60.21;99240.00;7312492;19;128930;-42
2022/08/26 03:41:25;;;;;;;;;;;;;;;25.76;60.11;99225.88;7312666;19;128839;-40
2022/08/26 03:43:51;;;;;;;;;;;;;;;25.86;60.18;99239.63;7312138;19;129606;-40
2022/08/26 03:46:17;;;;;;;;;;;;;;;25.85;60.16;99237.97;7309941;19;130248;-40
2022/08/26 03:48:42;;;;;;;;;;;;;;;25.85;59.99;99245.88;7312084;19;129539;-41
2022/08/26 03:51:12;;;;;;;;;;;;;;;25.87;60.26;99240.44;7313141;19;128843;-39
2022/08/26 03:53:37;;;;;;;;;;;;;;;25.87;60.30;99246.53;7311264;19;130130;-39
2022/08/26 03:56:03;;;;;;;;;;;;;;;25.84;60.48;99241.63;7309102;19;131164;-39
2022/08/26 03:58:30;;;;;;;;;;;;;;;25.78;61.00;99237.06;7312036;19;128889;-39
2022/08/26 04:00:56;;;;;;;;;;;;;;;25.86;60.88;99247.53;7313156;19;129115;-37
2022/08/26 04:06:05;;;;;;;;;;;;;;;25.31;54.44;99238.94;7309552;19;128902;-39
2022/08/26 04:08:31;;;;;;;;;;;;;;;25.39;57.13;99239.75;7311124;19;129669;-39
2022/08/26 04:10:56;;;;;;;;;;;;;;;25.59;59.32;99237.50;7311430;19;128862;-39
2022/08/26 04:13:21;;;;;;;;;;;;;;;25.71;60.18;99228.22;7311155;19;130183;-39
2022/08/26 04:15:46;;;;;;;;;;;;;;;25.78;60.50;99237.06;7308919;19;131203;-39
2022/08/26 04:18:12;;;;;;;;;;;;;;;25.75;60.08;99218.97;7310846;19;129258;-38
2022/08/26 04:20:38;;;;;;;;;;;;;;;25.85;59.92;99232.72;7311833;19;129000;-41
2022/08/26 04:23:03;;;;;;;;;;;;;;;25.86;60.19;99239.63;7311307;19;130173;-39
2022/08/26 04:25:28;;;;;;;;;;;;;;;25.87;59.87;99236.00;7309142;19;130337;-37
2022/08/26 04:27:54;;;;;;;;;;;;;;;25.87;60.48;99230.72;7309830;19;128869;-40
2022/08/26 04:30:19;;;;;;;;;;;;;;;25.89;59.92;99239.28;7310932;19;128942;-40
2022/08/26 04:32:45;;;;;;;;;;;;;;;25.82;60.26;99227.00;7310341;19;129307;-39
2022/08/26 04:35:10;;;;;;;;;;;;;;;25.88;60.57;99237.66;7310001;19;130317;-40
2022/08/26 04:37:36;;;;;;;;;;;;;;;25.89;60.85;99243.72;7310138;19;129486;-40
2022/08/26 04:40:02;;;;;;;;;;;;;;;25.89;61.00;99244.56;7312801;19;129890;-38
2022/08/26 04:42:28;;;;;;;;;;;;;;;25.91;60.65;99242.56;7310480;19;130129;-39
2022/08/26 04:44:54;;;;;;;;;;;;;;;25.91;60.34;99247.00;7316160;19;129950;-40
2022/08/26 04:47:19;;;;;;;;;;;;;;;25.92;60.52;99240.72;7317041;19;128991;-40
2022/08/26 04:49:44;;;;;;;;;;;;;;;25.91;60.51;99242.56;7318781;19;129046;-40
2022/08/26 04:52:10;;;;;;;;;;;;;;;25.50;54.59;99230.66;7316621;19;131368;-40
2022/08/26 04:54:35;;;;;;;;;;;;;;;25.32;54.04;99235.34;7317289;19;131263;-39
2022/08/26 04:57:01;;;;;;;;;;;;;;;25.44;58.29;99239.25;7318015;19;129155;-39
2022/08/26 04:59:26;;;;;;;;;;;;;;;25.63;59.60;99236.19;7318319;19;128821;-39
2022/08/26 05:01:55;;;;;;;;;;;;;;;25.72;60.08;99237.75;7316700;19;129238;-39
2022/08/26 05:04:20;;;;;;;;;;;;;;;25.80;60.33;99240.31;7317667;19;129702;-39
2022/08/26 05:06:47;;;;;;;;;;;;;;;25.85;59.57;99237.19;7317156;19;128972;-39
2022/08/26 05:09:12;;;;;;;;;;;;;;;25.89;60.07;99244.56;7318289;19;129507;-40
2022/08/26 05:11:38;;;;;;;;;;;;;;;25.88;60.37;99235.03;7316184;19;130128;-38
2022/08/26 05:14:04;;;;;;;;;;;;;;;25.87;60.05;99236.00;7316898;19;130434;-40
2022/08/26 05:16:30;;;;;;;;;;;;;;;25.89;60.54;99239.28;7314548;19;129783;-37
2022/08/26 05:18:55;;;;;;;;;;;;;;;25.91;59.98;99232.03;7317313;19;129375;-39
2022/08/26 05:21:22;;;;;;;;;;;;;;;25.93;60.35;99242.38;7317087;19;129940;-40
2022/08/26 05:23:50;;;;;;;;;;;;;;;25.93;60.26;99243.22;7316038;19;129586;-38
2022/08/26 05:26:16;;;;;;;;;;;;;;;25.90;60.69;99237.47;7314299;19;128784;-39
2022/08/26 05:28:41;;;;;;;;;;;;;;;25.93;60.72;99250.28;7316872;19;128931;-40
2022/08/26 05:31:11;;;;;;;;;;;;;;;25.92;60.63;99244.19;7315947;19;129185;-41
2022/08/26 05:33:36;;;;;;;;;;;;;;;25.92;60.56;99249.47;7315188;19;129595;-38
2022/08/26 05:36:05;;;;;;;;;;;;;;;25.92;60.36;99244.19;7314021;19;129323;-38
2022/08/26 05:38:30;;;;;;;;;;;;;;;25.91;60.42;99247.00;7317074;19;129937;-40
2022/08/26 05:40:56;;;;;;;;;;;;;;;25.40;54.10;99248.50;7315920;19;129075;-40
2022/08/26 05:43:21;;;;;;;;;;;;;;;25.22;53.97;99232.09;7315791;19;130342;-39
2022/08/26 05:45:48;;;;;;;;;;;;;;;25.51;58.79;99248.09;7315177;19;128897;-38
2022/08/26 05:48:14;;;;;;;;;;;;;;;25.66;59.28;99239.28;7316540;19;129767;-41
2022/08/26 05:50:41;;;;;;;;;;;;;;;25.76;59.52;99244.31;7315254;19;129294;-38
2022/08/26 05:53:08;;;;;;;;;;;;;;;25.82;60.20;99237.53;7315009;19;130565;-39
2022/08/26 05:55:33;;;;;;;;;;;;;;;25.86;60.62;99247.53;7314240;19;129097;-39
2022/08/26 05:57:59;;;;;;;;;;;;;;;25.87;60.18;99241.28;7316732;19;129352;-39
2022/08/26 06:00:24;;;;;;;;;;;;;;;25.88;59.70;99255.28;7315391;19;130279;-40
2022/08/26 06:02:50;;;;;;;;;;;;;;;25.87;59.81;99246.53;7314900;19;129824;-41
2022/08/26 06:05:15;;;;;;;;;;;;;;;25.89;60.20;99249.00;7314942;19;128922;-38
2022/08/26 06:10:24;;;;;;;;;;;;;;;25.93;60.18;99245.84;7315919;19;129078;-41
2022/08/26 06:12:49;;;;;;;;;;;;;;;25.93;60.74;99250.28;7314432;19;129409;-40
2022/08/26 06:15:15;;;;;;;;;;;;;;;25.92;60.27;99252.09;7313952;19;129513;-41
2022/08/26 06:17:40;;;;;;;;;;;;;;;25.93;60.18;99250.28;7316010;19;129186;-40
2022/08/26 06:20:05;;;;;;;;;;;;;;;25.95;60.50;99253.56;7315144;19;129461;-38
2022/08/26 06:27:58;;;;;;;;;;;;;;;25.46;54.35;99258.31;7314415;19;129110;-41
2022/08/26 06:30:24;;;;;;;;;;;;;;;25.22;54.09;99240.78;7314680;19;129600;-39
2022/08/26 06:32:49;;;;;;;;;;;;;;;25.48;58.45;99262.44;7313489;19;129130;-41
2022/08/26 06:35:14;;;;;;;;;;;;;;;25.66;59.41;99259.53;7313053;19;128987;-39
2022/08/26 06:37:41;;;;;;;;;;;;;;;25.75;59.95;99253.19;7313156;19;128969;-38
2022/08/26 06:40:07;;;;;;;;;;;;;;;25.81;59.78;99252.50;7315964;19;129326;-40
2022/08/26 06:42:32;;;;;;;;;;;;;;;25.85;60.34;99253.78;7314197;19;130549;-39
2022/08/26 06:44:58;;;;;;;;;;;;;;;25.88;60.20;99245.56;7313948;19;129841;-41
2022/08/26 06:47:23;;;;;;;;;;;;;;;25.88;59.34;99248.19;7314353;19;128903;-41
2022/08/26 06:49:49;;;;;;;;;;;;;;;25.88;60.29;99247.38;7315517;19;130677;-40
2022/08/26 06:52:14;;;;;;;;;;;;;;;25.90;60.10;99246.19;7313440;19;129581;-39
2022/08/26 06:54:41;;;;;;;;;;;;;;;25.90;60.61;99253.28;7313804;19;129105;-39
2022/08/26 06:57:07;;;;;;;;;;;;;;;25.90;60.35;99243.53;7314684;19;129682;-39
2022/08/26 06:59:32;;;;;;;;;;;;;;;25.89;60.49;99241.09;7314886;19;130117;-39
2022/08/26 07:01:58;;;;;;;;;;;;;;;25.81;60.78;99228.81;7313434;19;131385;-41
2022/08/26 07:04:23;;;;;;;;;;;;;;;25.90;59.99;99240.13;7314198;19;129062;-39
2022/08/26 07:06:50;;;;;;;;;;;;;;;25.91;60.50;99247.00;7311283;19;129490;-37
2022/08/26 07:09:15;;;;;;;;;;;;;;;25.92;60.77;99243.38;7314283;19;130280;-39
2022/08/26 07:11:41;;;;;;;;;;;;;;;25.91;60.90;99244.38;7312602;19;130299;-38
2022/08/26 07:14:06;;;;;;;;;;;;;;;25.91;60.97;99242.56;7312710;19;129306;-40
2022/08/26 07:16:32;;;;;;;;;;;;;;;25.44;54.42;99236.59;7310640;19;131128;-39
2022/08/26 07:18:57;;;;;;;;;;;;;;;25.32;54.34;99246.66;7313860;19;130311;-39
2022/08/26 07:21:23;;;;;;;;;;;;;;;25.51;59.03;99240.19;7312995;19;130637;-39
2022/08/26 07:23:49;;;;;;;;;;;;;;;25.68;59.76;99236.47;7312233;19;128875;-40
2022/08/26 07:26:16;;;;;;;;;;;;;;;25.77;59.36;99245.94;7311327;19;128928;-38
2022/08/26 07:28:42;;;;;;;;;;;;;;;25.84;60.38;99236.34;7312380;19;129676;-40
2022/08/26 07:31:08;;;;;;;;;;;;;;;25.86;60.09;99239.63;7312258;19;129737;-39
2022/08/26 07:33:34;;;;;;;;;;;;;;;25.87;60.08;99240.44;7312022;19;128951;-39
2022/08/26 07:36:00;;;;;;;;;;;;;;;25.88;60.10;99242.09;7311281;19;128832;-40
2022/08/26 07:38:25;;;;;;;;;;;;;;;25.87;59.70;99230.72;7312732;19;130070;-41
2022/08/26 07:40:50;;;;;;;;;;;;;;;25.88;60.53;99235.03;7312341;19;129930;-40
2022/08/26 07:43:16;;;;;;;;;;;;;;;25.91;60.45;99237.31;7311362;19;129125;-39
2022/08/26 07:45:41;;;;;;;;;;;;;;;25.91;60.39;99239.09;7312117;19;129465;-38
2022/08/26 07:48:07;;;;;;;;;;;;;;;25.92;60.24;99233.66;7311424;19;129208;-38
2022/08/26 07:50:32;;;;;;;;;;;;;;;25.91;60.38;99232.03;7312227;19;129399;-39
2022/08/26 07:52:57;;;;;;;;;;;;;;;25.91;60.17;99231.19;7311279;19;128941;-38
2022/08/26 07:55:22;;;;;;;;;;;;;;;25.92;60.20;99228.41;7311030;19;129453;-39
2022/08/26 07:57:48;;;;;;;;;;;;;;;25.83;60.00;99213.66;7310559;19;129557;-40
2022/08/26 08:00:14;;;;;;;;;;;;;;;25.92;60.83;99223.13;7311277;19;129438;-37
2022/08/26 08:02:40;;;;;;;;;;;;;;;25.60;55.78;99229.44;7311020;19;129251;-43
2022/08/26 08:05:06;;;;;;;;;;;;;;;25.24;54.57;99214.31;7311538;19;128900;-36
2022/08/26 08:07:31;;;;;;;;;;;;;;;25.32;55.32;99228.25;7311602;19;129196;-37
2022/08/26 08:09:56;;;;;;;;;;;;;;;25.59;59.67;99224.34;7311098;19;129157;-40
2022/08/26 08:12:22;;;;;;;;;;;;;;;25.70;59.81;99219.50;7310852;19;128920;-38
2022/08/26 08:14:47;;;;;;;;;;;;;;;25.70;59.67;99210.78;7310888;19;128984;-38
2022/08/26 08:17:13;;;;;;;;;;;;;;;25.84;60.28;99223.19;7310149;19;129672;-39
2022/08/26 08:19:38;;;;;;;;;;;;;;;25.81;59.32;99205.13;7317821;19;129599;-37
2022/08/26 08:22:04;;;;;;;;;;;;;;;25.89;60.08;99212.94;7317736;19;128795;-38
2022/08/26 08:24:32;;;;;;;;;;;;;;;25.91;59.78;99212.78;7318134;19;128809;-38
2022/08/26 08:26:59;;;;;;;;;;;;;;;25.91;60.21;99205.69;7317495;19;129478;-39
2022/08/26 08:29:26;;;;;;;;;;;;;;;25.93;60.35;99201.06;7317525;19;129392;-38
2022/08/26 08:31:52;;;;;;;;;;;;;;;25.93;60.28;99203.72;7318353;19;129663;-39
2022/08/26 08:34:17;;;;;;;;;;;;;;;25.92;60.40;99196.78;7318435;19;128995;-39
2022/08/26 08:36:45;;;;;;;;;;;;;;;25.82;60.34;99180.41;7315777;19;129830;-40
2022/08/26 08:39:11;;;;;;;;;;;;;;;25.91;60.61;99195.16;7318126;19;130404;-36
2022/08/26 08:42:07;;;;;;;;;;;;;;;25.92;60.13;99191.50;7318315;19;129189;-39
2022/08/26 08:44:36;;;;;;;;;;;;;;;25.94;60.09;99197.44;7317451;19;129325;-38
2022/08/26 08:47:04;;;;;;;;;;;;;;;25.91;60.58;99187.25;7317768;19;129216;-38
2022/08/26 08:49:31;;;;;;;;;;;;;;;25.91;59.78;99184.63;7317614;19;131027;-38
2022/08/26 08:52:03;;;;;;;;;;;;;;;25.36;54.43;99181.38;7317056;19;129263;-40
2022/08/26 08:54:30;;;;;;;;;;;;;;;25.28;56.35;99171.72;7316987;19;129520;-38
2022/08/26 08:57:01;;;;;;;;;;;;;;;25.59;59.26;99175.16;7315741;19;129753;-38
2022/08/26 08:59:30;;;;;;;;;;;;;;;25.73;59.47;99181.47;7317673;19;130897;-40
2022/08/26 09:02:19;;;;;;;;;;;;;;;25.72;59.43;99157.94;7316864;19;129531;-40
2022/08/26 09:05:04;;;;;;;;;;;;;;;25.87;60.18;99171.97;7315701;19;129064;-39
2022/08/26 09:07:48;;;;;;;;;;;;;;;25.87;60.11;99175.41;7317240;19;131486;-41
2022/08/26 09:10:23;;;;;;;;;;;;;;;25.89;59.71;99176.06;7317125;19;129108;-41
2022/08/26 09:12:49;;;;;;;;;;;;;;;25.90;60.19;99176.91;7315671;19;129541;-39
2022/08/26 09:15:22;;;;;;;;;;;;;;;25.91;60.15;99175.88;7315218;19;129368;-38
2022/08/26 09:17:54;;;;;;;;;;;;;;;25.88;60.32;99166.53;7317431;19;128962;-40
2022/08/26 09:20:34;;;;;;;;;;;;;;;25.89;59.90;99160.25;7316536;19;130716;-41
2022/08/26 09:23:00;;;;;;;;;;;;;;;25.79;60.34;99133.34;7316935;19;129543;-40
2022/08/26 09:25:25;;;;;;;;;;;;;;;25.90;60.20;99161.88;7315538;19;129116;-40
2022/08/26 09:27:52;;;;;;;;;;;;;;;25.90;60.36;99164.53;7315991;19;130053;-38
2022/08/26 09:30:22;;;;;;;;;;;;;;;25.91;60.44;99160.91;7316175;19;129534;-40
2022/08/26 09:32:58;;;;;;;;;;;;;;;25.91;60.09;99163.56;7315662;19;129013;-39
2022/08/26 09:35:26;;;;;;;;;;;;;;;25.88;60.43;99148.09;7315006;19;129598;-40
2022/08/26 09:37:51;;;;;;;;;;;;;;;25.46;54.62;99153.84;7315980;19;130252;-39
2022/08/26 09:40:23;;;;;;;;;;;;;;;25.30;53.67;99153.13;7316896;19;129165;-37
2022/08/26 09:43:08;;;;;;;;;;;;;;;25.48;59.03;99161.56;7316779;19;129397;-40
2022/08/26 09:45:34;;;;;;;;;;;;;;;25.67;60.12;99166.34;7313589;19;131799;-40
2022/08/26 09:48:00;;;;;;;;;;;;;;;25.70;59.60;99144.97;7315068;19;130777;-40
2022/08/26 09:50:27;;;;;;;;;;;;;;;25.83;59.87;99163.63;7315457;19;129839;-40
2022/08/26 09:53:07;;;;;;;;;;;;;;;25.87;59.90;99164.06;7315364;19;129203;-39
2022/08/26 09:55:33;;;;;;;;;;;;;;;25.89;59.75;99160.25;7316186;19;129020;-41
2022/08/26 09:57:58;;;;;;;;;;;;;;;25.90;59.66;99158.47;7315642;19;129636;-39
2022/08/26 10:00:24;;;;;;;;;;;;;;;25.90;59.72;99155.81;7316371;19;129665;-40
2022/08/26 10:02:49;;;;;;;;;;;;;;;25.90;60.08;99159.25;7314794;19;129007;-37
2022/08/26 10:05:17;;;;;;;;;;;;;;;25.91;60.02;99152.19;7315153;19;128822;-39
2022/08/26 10:07:47;;;;;;;;;;;;;;;25.91;60.81;99147.75;7314781;19;129531;-39
2022/08/26 10:10:16;;;;;;;;;;;;;;;25.90;60.44;99138.19;7315058;19;130315;-41
2022/08/26 10:12:46;;;;;;;;;;;;;;;25.87;60.41;99125.38;7314770;19;129047;-41
2022/08/26 10:15:13;;;;;;;;;;;;;;;25.91;59.88;99137.22;7315270;19;129038;-40
2022/08/26 10:17:38;;;;;;;;;;;;;;;25.91;60.73;99147.75;7315713;19;129268;-39
2022/08/26 10:20:05;;;;;;;;;;;;;;;25.92;60.66;99144.09;7315511;19;129765;-39
2022/08/26 10:22:41;;;;;;;;;;;;;;;25.92;60.27;99141.47;7314795;19;129120;-38
2022/08/26 10:25:11;;;;;;;;;;;;;;;25.55;55.24;99149.34;7313688;19;129633;-38
2022/08/26 10:27:52;;;;;;;;;;;;;;;25.26;53.90;99144.75;7315142;19;130940;-37
2022/08/26 10:30:20;;;;;;;;;;;;;;;25.49;58.29;99152.66;7315992;19;131547;-39
2022/08/26 10:32:56;;;;;;;;;;;;;;;25.67;59.47;99145.28;7314174;19;129308;-40
2022/08/26 10:35:22;;;;;;;;;;;;;;;25.77;59.76;99145.06;7313400;19;129533;-40
2022/08/26 10:37:50;;;;;;;;;;;;;;;25.77;59.56;99124.00;7313605;19;129518;-38
2022/08/26 10:40:15;;;;;;;;;;;;;;;25.86;60.01;99129.03;7314661;19;130249;-37
2022/08/26 10:42:58;;;;;;;;;;;;;;;25.87;60.02;99117.47;7313984;19;129082;-40
2022/08/26 10:45:27;;;;;;;;;;;;;;;25.88;59.98;99108.59;7312829;19;129308;-38
2022/08/26 10:47:54;;;;;;;;;;;;;;;25.88;60.32;99113.88;7313328;19;129511;-37
2022/08/26 10:50:21;;;;;;;;;;;;;;;25.88;60.61;99121.75;7313534;19;129297;-37
2022/08/26 10:52:47;;;;;;;;;;;;;;;25.86;60.45;99129.03;7313912;19;128831;-40
2022/08/26 10:55:22;;;;;;;;;;;;;;;25.89;60.19;99127.84;7313260;19;129666;-38
2022/08/26 10:57:48;;;;;;;;;;;;;;;25.90;60.09;99118.94;7313154;19;130093;-39
2022/08/26 11:03:09;;;;;;;;;;;;;;;25.89;60.63;99102.31;7313304;19;129350;-40
2022/08/26 11:05:34;;;;;;;;;;;;;;;25.90;60.12;99105.78;7312428;19;129710;-39
2022/08/26 11:08:29;;;;;;;;;;;;;;;25.90;60.30;99111.84;7314031;19;129622;-39
2022/08/26 11:10:57;;;;;;;;;;;;;;;25.90;60.36;99108.41;7313477;19;129655;-40
2022/08/26 11:13:40;;;;;;;;;;;;;;;25.43;54.63;99100.75;7312610;19;129322;-39
2022/08/26 11:16:07;;;;;;;;;;;;;;;25.32;54.25;99098.50;7310553;19;129530;-37
2022/08/26 11:18:36;;;;;;;;;;;;;;;25.50;58.93;99099.84;7312626;19;129209;-38
2022/08/26 11:21:01;;;;;;;;;;;;;;;25.68;60.15;99107.47;7313000;19;129313;-38
2022/08/26 11:23:27;;;;;;;;;;;;;;;25.76;59.80;99106.56;7313007;19;128933;-38
2022/08/26 11:25:54;;;;;;;;;;;;;;;25.83;59.64;99113.59;7310610;19;128744;-38
2022/08/26 11:28:34;;;;;;;;;;;;;;;25.84;59.33;99095.94;7311842;19;129286;-38
2022/08/26 11:31:00;;;;;;;;;;;;;;;25.85;60.09;99090.50;7312814;19;129987;-37
2022/08/26 11:33:41;;;;;;;;;;;;;;;25.87;60.39;99077.97;7312613;19;128885;-40
2022/08/26 11:36:06;;;;;;;;;;;;;;;25.88;59.89;99070.91;7311395;19;129488;-39
2022/08/26 11:38:31;;;;;;;;;;;;;;;25.89;60.33;99070.72;7312627;19;130257;-36
2022/08/26 11:41:03;;;;;;;;;;;;;;;25.81;60.38;99057.63;7313131;19;130119;-39
2022/08/26 11:43:29;;;;;;;;;;;;;;;25.87;60.53;99062.16;7311216;19;128988;-39
2022/08/26 11:46:04;;;;;;;;;;;;;;;25.88;59.97;99053.28;7310588;19;128903;-38
2022/08/26 11:48:32;;;;;;;;;;;;;;;25.91;60.23;99045.03;7312957;19;129796;-40
2022/08/26 11:51:08;;;;;;;;;;;;;;;25.90;60.94;99035.47;7312730;19;130307;-38
2022/08/26 11:53:36;;;;;;;;;;;;;;;25.82;60.79;99016.31;7318256;19;129594;-41
2022/08/26 11:56:03;;;;;;;;;;;;;;;25.88;60.63;99019.03;7317000;19;129219;-40
2022/08/26 11:58:30;;;;;;;;;;;;;;;25.89;60.55;99020.66;7319399;19;129567;-39
2022/08/26 12:01:00;;;;;;;;;;;;;;;25.32;54.48;98998.50;7319502;19;129647;-40
2022/08/26 12:03:34;;;;;;;;;;;;;;;25.31;54.39;99017.91;7317699;19;129565;-40
2022/08/26 12:06:00;;;;;;;;;;;;;;;25.54;58.81;99014.28;7316335;19;129024;-40
2022/08/26 12:08:27;;;;;;;;;;;;;;;25.69;60.09;99016.94;7318256;19;129839;-38
2022/08/26 12:11:08;;;;;;;;;;;;;;;25.78;59.68;99009.75;7320110;19;129321;-39
2022/08/26 12:13:34;;;;;;;;;;;;;;;25.83;59.97;99010.88;7318039;19;129070;-42
2022/08/26 12:15:59;;;;;;;;;;;;;;;25.84;59.53;99003.75;7315757;19;130001;-41
2022/08/26 12:18:28;;;;;;;;;;;;;;;25.85;59.55;99005.41;7317558;19;129308;-40
2022/08/26 12:20:54;;;;;;;;;;;;;;;25.88;59.61;98997.97;7319451;19;130388;-41
2022/08/26 12:23:38;;;;;;;;;;;;;;;25.89;60.46;99002.22;7318371;19;129540;-41
2022/08/26 12:26:09;;;;;;;;;;;;;;;25.91;60.23;98994.16;7316566;19;128924;-41
2022/08/26 12:28:40;;;;;;;;;;;;;;;25.92;60.49;98991.31;7317936;19;129669;-39
2022/08/26 12:31:06;;;;;;;;;;;;;;;25.91;60.19;98994.97;7318169;19;129714;-41
2022/08/26 12:33:34;;;;;;;;;;;;;;;25.90;59.89;98985.41;7316935;19;128964;-38
2022/08/26 12:36:00;;;;;;;;;;;;;;;25.90;60.38;98993.31;7316290;19;129106;-41
2022/08/26 12:38:27;;;;;;;;;;;;;;;25.90;60.04;98988.06;7317263;19;130763;-40
2022/08/26 12:40:52;;;;;;;;;;;;;;;25.89;60.24;98994.31;7317265;19;129702;-40
2022/08/26 12:43:38;;;;;;;;;;;;;;;25.89;60.49;98989.06;7316215;19;129368;-41
2022/08/26 12:46:04;;;;;;;;;;;;;;;25.91;60.71;98991.50;7315604;19;129004;-40
2022/08/26 12:48:34;;;;;;;;;;;;;;;25.35;54.67;98990.28;7317795;19;129428;-39
2022/08/26 12:51:00;;;;;;;;;;;;;;;25.33;53.69;98989.59;7317683;19;131405;-40
2022/08/26 12:53:30;;;;;;;;;;;;;;;25.58;59.38;98988.41;7316226;19;128792;-38